sensor_id;sensor_type;location;lat;lon;timestamp;P1;durP1;ratioP1;P2;durP2;ratioP2
75718;SDS011;64340;48.534;-3.036;2023-02-01T00:01:50;5.38;;;1.80;;
75718;SDS011;64340;48.534;-3.036;2023-02-01T00:04:16;3.55;;;1.40;;
75718;SDS011;64340;48.534;-3.036;2023-02-01T00:06:41;6.40;;;2.20;;
75718;SDS011;64340;48.534;-3.036;2023-02-01T00:09:07;6.35;;;1.95;;
75718;SDS011;64340;48.534;-3.036;2023-02-01T00:11:33;4.03;;;1.45;;
75718;SDS011;64340;48.534;-3.036;2023-02-01T00:13:59;5.15;;;1.98;;
75718;SDS011;64340;48.534;-3.036;2023-02-01T00:16:26;5.15;;;1.80;;
75718;SDS011;64340;48.534;-3.036;2023-02-01T00:19:12;4.88;;;1.70;;
75718;SDS011;64340;48.534;-3.036;2023-02-01T00:21:39;4.85;;;1.75;;
75718;SDS011;64340;48.534;-3.036;2023-02-01T00:24:06;6.45;;;1.90;;
75718;SDS011;64340;48.534;-3.036;2023-02-01T00:26:37;7.05;;;2.30;;
75718;SDS011;64340;48.534;-3.036;2023-02-01T00:29:12;4.75;;;2.22;;
75718;SDS011;64340;48.534;-3.036;2023-02-01T00:31:43;6.45;;;1.83;;
75718;SDS011;64340;48.534;-3.036;2023-02-01T00:34:11;4.75;;;1.70;;
75718;SDS011;64340;48.534;-3.036;2023-02-01T00:36:38;5.32;;;1.60;;
75718;SDS011;64340;48.534;-3.036;2023-02-01T00:39:04;5.55;;;1.83;;
75718;SDS011;64340;48.534;-3.036;2023-02-01T00:41:29;4.55;;;1.60;;
75718;SDS011;64340;48.534;-3.036;2023-02-01T00:43:55;6.25;;;1.80;;
75718;SDS011;64340;48.534;-3.036;2023-02-01T00:46:21;5.53;;;1.65;;
75718;SDS011;64340;48.534;-3.036;2023-02-01T00:48:47;5.55;;;1.70;;
75718;SDS011;64340;48.534;-3.036;2023-02-01T00:51:14;6.82;;;1.60;;
75718;SDS011;64340;48.534;-3.036;2023-02-01T00:53:44;4.63;;;1.92;;
75718;SDS011;64340;48.534;-3.036;2023-02-01T00:56:10;5.50;;;1.63;;
75718;SDS011;64340;48.534;-3.036;2023-02-01T00:58:37;7.03;;;1.67;;
75718;SDS011;64340;48.534;-3.036;2023-02-01T01:01:21;5.63;;;2.17;;
75718;SDS011;64340;48.534;-3.036;2023-02-01T01:03:50;6.18;;;1.80;;
75718;SDS011;64340;48.534;-3.036;2023-02-01T01:06:22;4.35;;;1.55;;
75718;SDS011;64340;48.534;-3.036;2023-02-01T01:08:51;5.25;;;1.67;;
75718;SDS011;64340;48.534;-3.036;2023-02-01T01:11:18;4.60;;;1.45;;
75718;SDS011;64340;48.534;-3.036;2023-02-01T01:13:47;2.97;;;1.23;;
75718;SDS011;64340;48.534;-3.036;2023-02-01T01:16:14;6.13;;;1.70;;
75718;SDS011;64340;48.534;-3.036;2023-02-01T01:18:40;5.25;;;1.75;;
75718;SDS011;64340;48.534;-3.036;2023-02-01T01:21:06;3.35;;;1.45;;
75718;SDS011;64340;48.534;-3.036;2023-02-01T01:23:34;4.90;;;1.75;;
75718;SDS011;64340;48.534;-3.036;2023-02-01T01:26:00;4.45;;;1.42;;
75718;SDS011;64340;48.534;-3.036;2023-02-01T01:28:29;4.57;;;1.30;;
75718;SDS011;64340;48.534;-3.036;2023-02-01T01:30:55;4.82;;;1.63;;
75718;SDS011;64340;48.534;-3.036;2023-02-01T01:33:20;3.83;;;1.13;;
75718;SDS011;64340;48.534;-3.036;2023-02-01T01:35:46;7.25;;;1.75;;
75718;SDS011;64340;48.534;-3.036;2023-02-01T01:38:12;4.55;;;1.52;;
75718;SDS011;64340;48.534;-3.036;2023-02-01T01:40:38;5.28;;;1.40;;
75718;SDS011;64340;48.534;-3.036;2023-02-01T01:43:08;3.88;;;1.40;;
75718;SDS011;64340;48.534;-3.036;2023-02-01T01:45:39;6.20;;;1.73;;
75718;SDS011;64340;48.534;-3.036;2023-02-01T01:48:05;3.85;;;1.48;;
75718;SDS011;64340;48.534;-3.036;2023-02-01T01:50:47;4.18;;;1.58;;
75718;SDS011;64340;48.534;-3.036;2023-02-01T01:53:23;4.25;;;1.40;;
75718;SDS011;64340;48.534;-3.036;2023-02-01T01:55:53;5.40;;;1.42;;
75718;SDS011;64340;48.534;-3.036;2023-02-01T01:58:22;5.50;;;1.63;;
75718;SDS011;64340;48.534;-3.036;2023-02-01T02:00:50;6.00;;;1.40;;
75718;SDS011;64340;48.534;-3.036;2023-02-01T02:03:18;4.97;;;1.30;;
75718;SDS011;64340;48.534;-3.036;2023-02-01T02:05:48;5.13;;;1.48;;
75718;SDS011;64340;48.534;-3.036;2023-02-01T02:08:17;7.72;;;2.03;;
75718;SDS011;64340;48.534;-3.036;2023-02-01T02:10:45;5.50;;;1.45;;
75718;SDS011;64340;48.534;-3.036;2023-02-01T02:13:26;6.28;;;1.30;;
75718;SDS011;64340;48.534;-3.036;2023-02-01T02:24:40;6.20;;;1.95;;
75718;SDS011;64340;48.534;-3.036;2023-02-01T02:27:19;6.13;;;1.55;;
75718;SDS011;64340;48.534;-3.036;2023-02-01T02:38:33;5.78;;;1.42;;
75718;SDS011;64340;48.534;-3.036;2023-02-01T02:47:10;5.38;;;1.45;;
75718;SDS011;64340;48.534;-3.036;2023-02-01T02:53:18;5.78;;;1.27;;
75718;SDS011;64340;48.534;-3.036;2023-02-01T02:56:22;3.63;;;1.45;;
75718;SDS011;64340;48.534;-3.036;2023-02-01T02:59:09;5.28;;;1.90;;
75718;SDS011;64340;48.534;-3.036;2023-02-01T03:01:56;4.07;;;1.30;;
75718;SDS011;64340;48.534;-3.036;2023-02-01T03:04:41;4.40;;;1.20;;
75718;SDS011;64340;48.534;-3.036;2023-02-01T03:10:21;4.28;;;1.40;;
75718;SDS011;64340;48.534;-3.036;2023-02-01T03:12:55;5.75;;;1.40;;
75718;SDS011;64340;48.534;-3.036;2023-02-01T03:18:16;4.28;;;1.00;;
75718;SDS011;64340;48.534;-3.036;2023-02-01T03:20:47;4.10;;;1.23;;
75718;SDS011;64340;48.534;-3.036;2023-02-01T03:23:16;5.93;;;1.60;;
75718;SDS011;64340;48.534;-3.036;2023-02-01T03:25:46;7.90;;;1.55;;
75718;SDS011;64340;48.534;-3.036;2023-02-01T03:30:44;7.38;;;1.33;;
75718;SDS011;64340;48.534;-3.036;2023-02-01T03:33:12;6.18;;;1.33;;
75718;SDS011;64340;48.534;-3.036;2023-02-01T03:35:52;5.78;;;1.33;;
75718;SDS011;64340;48.534;-3.036;2023-02-01T03:41:18;6.32;;;1.63;;
75718;SDS011;64340;48.534;-3.036;2023-02-01T03:43:56;4.60;;;0.95;;
75718;SDS011;64340;48.534;-3.036;2023-02-01T03:46:52;6.40;;;1.63;;
75718;SDS011;64340;48.534;-3.036;2023-02-01T03:49:39;4.82;;;1.40;;
75718;SDS011;64340;48.534;-3.036;2023-02-01T03:52:09;5.03;;;1.40;;
75718;SDS011;64340;48.534;-3.036;2023-02-01T03:54:39;6.68;;;1.50;;
75718;SDS011;64340;48.534;-3.036;2023-02-01T03:57:07;3.85;;;1.10;;
75718;SDS011;64340;48.534;-3.036;2023-02-01T03:59:39;6.78;;;1.75;;
75718;SDS011;64340;48.534;-3.036;2023-02-01T04:02:07;4.38;;;1.10;;
75718;SDS011;64340;48.534;-3.036;2023-02-01T04:04:33;4.50;;;1.60;;
75718;SDS011;64340;48.534;-3.036;2023-02-01T04:07:00;5.25;;;1.30;;
75718;SDS011;64340;48.534;-3.036;2023-02-01T04:09:26;4.47;;;1.23;;
75718;SDS011;64340;48.534;-3.036;2023-02-01T04:11:51;5.25;;;1.92;;
75718;SDS011;64340;48.534;-3.036;2023-02-01T04:14:17;4.47;;;0.95;;
75718;SDS011;64340;48.534;-3.036;2023-02-01T04:16:43;4.90;;;1.13;;
75718;SDS011;64340;48.534;-3.036;2023-02-01T04:19:09;5.80;;;1.40;;
75718;SDS011;64340;48.534;-3.036;2023-02-01T04:21:34;5.32;;;1.50;;
75718;SDS011;64340;48.534;-3.036;2023-02-01T04:24:00;6.28;;;1.50;;
75718;SDS011;64340;48.534;-3.036;2023-02-01T04:26:26;6.93;;;1.42;;
75718;SDS011;64340;48.534;-3.036;2023-02-01T04:28:52;5.35;;;1.30;;
75718;SDS011;64340;48.534;-3.036;2023-02-01T04:31:18;5.80;;;1.33;;
75718;SDS011;64340;48.534;-3.036;2023-02-01T04:33:51;5.88;;;1.40;;
75718;SDS011;64340;48.534;-3.036;2023-02-01T04:36:18;3.28;;;1.42;;
75718;SDS011;64340;48.534;-3.036;2023-02-01T04:38:48;6.57;;;1.40;;
75718;SDS011;64340;48.534;-3.036;2023-02-01T04:41:14;6.32;;;1.75;;
75718;SDS011;64340;48.534;-3.036;2023-02-01T04:43:47;4.70;;;1.48;;
75718;SDS011;64340;48.534;-3.036;2023-02-01T04:46:13;6.55;;;1.38;;
75718;SDS011;64340;48.534;-3.036;2023-02-01T04:48:39;5.32;;;1.50;;
75718;SDS011;64340;48.534;-3.036;2023-02-01T04:51:05;5.32;;;1.45;;
75718;SDS011;64340;48.534;-3.036;2023-02-01T04:53:30;5.65;;;1.30;;
75718;SDS011;64340;48.534;-3.036;2023-02-01T04:55:57;6.43;;;1.50;;
75718;SDS011;64340;48.534;-3.036;2023-02-01T04:58:22;5.75;;;1.67;;
75718;SDS011;64340;48.534;-3.036;2023-02-01T05:00:48;4.88;;;1.30;;
75718;SDS011;64340;48.534;-3.036;2023-02-01T05:03:14;6.10;;;1.60;;
75718;SDS011;64340;48.534;-3.036;2023-02-01T05:05:40;5.70;;;1.50;;
75718;SDS011;64340;48.534;-3.036;2023-02-01T05:08:06;4.82;;;1.58;;
75718;SDS011;64340;48.534;-3.036;2023-02-01T05:10:32;7.43;;;1.70;;
75718;SDS011;64340;48.534;-3.036;2023-02-01T05:12:57;5.18;;;1.05;;
75718;SDS011;64340;48.534;-3.036;2023-02-01T05:15:41;4.32;;;1.42;;
75718;SDS011;64340;48.534;-3.036;2023-02-01T05:18:07;6.07;;;1.25;;
75718;SDS011;64340;48.534;-3.036;2023-02-01T05:20:33;7.72;;;1.60;;
75718;SDS011;64340;48.534;-3.036;2023-02-01T05:22:59;4.18;;;1.17;;
75718;SDS011;64340;48.534;-3.036;2023-02-01T05:25:25;5.20;;;1.58;;
75718;SDS011;64340;48.534;-3.036;2023-02-01T05:27:50;6.75;;;1.40;;
75718;SDS011;64340;48.534;-3.036;2023-02-01T05:30:16;7.53;;;1.58;;
75718;SDS011;64340;48.534;-3.036;2023-02-01T05:32:42;6.35;;;1.50;;
75718;SDS011;64340;48.534;-3.036;2023-02-01T05:35:08;6.43;;;1.45;;
75718;SDS011;64340;48.534;-3.036;2023-02-01T05:37:34;7.07;;;2.15;;
75718;SDS011;64340;48.534;-3.036;2023-02-01T05:40:00;5.10;;;1.45;;
75718;SDS011;64340;48.534;-3.036;2023-02-01T05:42:26;3.85;;;1.48;;
75718;SDS011;64340;48.534;-3.036;2023-02-01T05:44:51;7.25;;;1.17;;
75718;SDS011;64340;48.534;-3.036;2023-02-01T05:47:17;5.82;;;1.85;;
75718;SDS011;64340;48.534;-3.036;2023-02-01T05:49:43;7.97;;;1.38;;
75718;SDS011;64340;48.534;-3.036;2023-02-01T05:52:09;6.03;;;1.90;;
75718;SDS011;64340;48.534;-3.036;2023-02-01T05:54:34;7.22;;;1.42;;
75718;SDS011;64340;48.534;-3.036;2023-02-01T05:57:00;8.48;;;1.60;;
75718;SDS011;64340;48.534;-3.036;2023-02-01T05:59:26;7.43;;;1.65;;
75718;SDS011;64340;48.534;-3.036;2023-02-01T06:01:51;8.15;;;1.67;;
75718;SDS011;64340;48.534;-3.036;2023-02-01T06:04:17;10.50;;;1.90;;
75718;SDS011;64340;48.534;-3.036;2023-02-01T06:06:43;8.10;;;1.67;;
75718;SDS011;64340;48.534;-3.036;2023-02-01T06:09:09;9.45;;;2.13;;
75718;SDS011;64340;48.534;-3.036;2023-02-01T06:11:34;7.68;;;2.20;;
75718;SDS011;64340;48.534;-3.036;2023-02-01T06:14:00;6.10;;;1.95;;
75718;SDS011;64340;48.534;-3.036;2023-02-01T06:16:26;6.75;;;1.95;;
75718;SDS011;64340;48.534;-3.036;2023-02-01T06:18:52;11.55;;;2.65;;
75718;SDS011;64340;48.534;-3.036;2023-02-01T06:21:18;16.27;;;4.00;;
75718;SDS011;64340;48.534;-3.036;2023-02-01T06:23:52;17.50;;;3.28;;
75718;SDS011;64340;48.534;-3.036;2023-02-01T06:26:18;17.10;;;3.25;;
75718;SDS011;64340;48.534;-3.036;2023-02-01T06:28:44;11.15;;;3.58;;
75718;SDS011;64340;48.534;-3.036;2023-02-01T06:31:10;17.63;;;3.63;;
75718;SDS011;64340;48.534;-3.036;2023-02-01T06:33:36;15.77;;;4.00;;
75718;SDS011;64340;48.534;-3.036;2023-02-01T06:36:04;12.95;;;3.53;;
75718;SDS011;64340;48.534;-3.036;2023-02-01T06:38:31;19.60;;;3.33;;
75718;SDS011;64340;48.534;-3.036;2023-02-01T06:40:59;16.25;;;3.30;;
75718;SDS011;64340;48.534;-3.036;2023-02-01T06:43:26;14.38;;;3.67;;
75718;SDS011;64340;48.534;-3.036;2023-02-01T06:45:52;11.70;;;2.50;;
75718;SDS011;64340;48.534;-3.036;2023-02-01T06:48:18;16.83;;;2.95;;
75718;SDS011;64340;48.534;-3.036;2023-02-01T06:50:44;15.63;;;3.92;;
75718;SDS011;64340;48.534;-3.036;2023-02-01T06:53:10;13.93;;;3.00;;
75718;SDS011;64340;48.534;-3.036;2023-02-01T06:55:36;12.75;;;3.35;;
75718;SDS011;64340;48.534;-3.036;2023-02-01T06:58:02;13.52;;;3.55;;
75718;SDS011;64340;48.534;-3.036;2023-02-01T07:00:28;12.18;;;2.95;;
75718;SDS011;64340;48.534;-3.036;2023-02-01T07:02:54;11.80;;;2.40;;
75718;SDS011;64340;48.534;-3.036;2023-02-01T07:05:22;11.13;;;2.80;;
75718;SDS011;64340;48.534;-3.036;2023-02-01T07:07:48;13.23;;;2.42;;
75718;SDS011;64340;48.534;-3.036;2023-02-01T07:10:13;10.23;;;2.63;;
75718;SDS011;64340;48.534;-3.036;2023-02-01T07:12:39;13.52;;;2.33;;
75718;SDS011;64340;48.534;-3.036;2023-02-01T07:15:05;7.00;;;2.53;;
75718;SDS011;64340;48.534;-3.036;2023-02-01T07:17:31;9.85;;;2.50;;
75718;SDS011;64340;48.534;-3.036;2023-02-01T07:19:57;11.07;;;2.63;;
75718;SDS011;64340;48.534;-3.036;2023-02-01T07:22:26;11.82;;;2.60;;
75718;SDS011;64340;48.534;-3.036;2023-02-01T07:24:52;9.00;;;2.22;;
75718;SDS011;64340;48.534;-3.036;2023-02-01T07:27:18;7.93;;;2.72;;
75718;SDS011;64340;48.534;-3.036;2023-02-01T07:29:45;7.40;;;2.25;;
75718;SDS011;64340;48.534;-3.036;2023-02-01T07:32:10;9.45;;;2.13;;
75718;SDS011;64340;48.534;-3.036;2023-02-01T07:34:36;8.63;;;2.47;;
75718;SDS011;64340;48.534;-3.036;2023-02-01T07:37:02;9.40;;;1.83;;
75718;SDS011;64340;48.534;-3.036;2023-02-01T07:39:28;7.97;;;2.55;;
75718;SDS011;64340;48.534;-3.036;2023-02-01T07:41:56;9.48;;;2.22;;
75718;SDS011;64340;48.534;-3.036;2023-02-01T07:44:22;7.22;;;2.05;;
75718;SDS011;64340;48.534;-3.036;2023-02-01T07:46:49;11.15;;;2.22;;
75718;SDS011;64340;48.534;-3.036;2023-02-01T07:49:15;7.95;;;2.22;;
75718;SDS011;64340;48.534;-3.036;2023-02-01T07:51:42;7.32;;;1.73;;
75718;SDS011;64340;48.534;-3.036;2023-02-01T07:54:08;7.93;;;2.10;;
75718;SDS011;64340;48.534;-3.036;2023-02-01T07:56:34;10.95;;;2.60;;
75718;SDS011;64340;48.534;-3.036;2023-02-01T07:59:00;7.32;;;1.92;;
75718;SDS011;64340;48.534;-3.036;2023-02-01T08:01:27;10.15;;;2.35;;
75718;SDS011;64340;48.534;-3.036;2023-02-01T08:03:54;7.03;;;2.40;;
75718;SDS011;64340;48.534;-3.036;2023-02-01T08:06:24;6.47;;;2.00;;
75718;SDS011;64340;48.534;-3.036;2023-02-01T08:08:51;7.35;;;2.20;;
75718;SDS011;64340;48.534;-3.036;2023-02-01T08:11:18;7.82;;;2.15;;
75718;SDS011;64340;48.534;-3.036;2023-02-01T08:13:45;7.05;;;2.15;;
75718;SDS011;64340;48.534;-3.036;2023-02-01T08:16:12;9.52;;;2.63;;
75718;SDS011;64340;48.534;-3.036;2023-02-01T08:18:40;6.90;;;2.05;;
75718;SDS011;64340;48.534;-3.036;2023-02-01T08:21:10;6.40;;;1.67;;
75718;SDS011;64340;48.534;-3.036;2023-02-01T08:23:41;8.50;;;2.30;;
75718;SDS011;64340;48.534;-3.036;2023-02-01T08:26:11;6.88;;;1.52;;
75718;SDS011;64340;48.534;-3.036;2023-02-01T08:28:47;7.45;;;2.10;;
75718;SDS011;64340;48.534;-3.036;2023-02-01T08:31:17;7.63;;;2.22;;
75718;SDS011;64340;48.534;-3.036;2023-02-01T08:33:47;7.65;;;2.17;;
75718;SDS011;64340;48.534;-3.036;2023-02-01T08:36:15;7.43;;;2.58;;
75718;SDS011;64340;48.534;-3.036;2023-02-01T08:38:41;5.18;;;1.65;;
75718;SDS011;64340;48.534;-3.036;2023-02-01T08:41:07;7.15;;;2.05;;
75718;SDS011;64340;48.534;-3.036;2023-02-01T08:43:43;8.40;;;2.25;;
75718;SDS011;64340;48.534;-3.036;2023-02-01T08:46:10;6.78;;;2.08;;
75718;SDS011;64340;48.534;-3.036;2023-02-01T08:48:36;8.65;;;2.25;;
75718;SDS011;64340;48.534;-3.036;2023-02-01T08:51:03;6.55;;;1.52;;
75718;SDS011;64340;48.534;-3.036;2023-02-01T08:53:31;5.13;;;1.80;;
75718;SDS011;64340;48.534;-3.036;2023-02-01T08:55:57;6.90;;;1.80;;
75718;SDS011;64340;48.534;-3.036;2023-02-01T08:58:22;7.78;;;1.85;;
75718;SDS011;64340;48.534;-3.036;2023-02-01T09:00:48;8.38;;;2.05;;
75718;SDS011;64340;48.534;-3.036;2023-02-01T09:03:14;6.25;;;1.80;;
75718;SDS011;64340;48.534;-3.036;2023-02-01T09:05:41;7.55;;;2.08;;
75718;SDS011;64340;48.534;-3.036;2023-02-01T09:08:07;5.63;;;1.50;;
75718;SDS011;64340;48.534;-3.036;2023-02-01T09:10:33;6.13;;;2.13;;
75718;SDS011;64340;48.534;-3.036;2023-02-01T09:13:00;6.97;;;2.00;;
75718;SDS011;64340;48.534;-3.036;2023-02-01T09:15:26;7.18;;;1.73;;
75718;SDS011;64340;48.534;-3.036;2023-02-01T09:17:51;6.40;;;1.85;;
75718;SDS011;64340;48.534;-3.036;2023-02-01T09:20:17;7.22;;;1.63;;
75718;SDS011;64340;48.534;-3.036;2023-02-01T09:22:45;4.63;;;1.38;;
75718;SDS011;64340;48.534;-3.036;2023-02-01T09:25:10;5.22;;;1.90;;
75718;SDS011;64340;48.534;-3.036;2023-02-01T09:27:36;7.55;;;2.20;;
75718;SDS011;64340;48.534;-3.036;2023-02-01T09:30:03;7.95;;;1.92;;
75718;SDS011;64340;48.534;-3.036;2023-02-01T09:32:29;7.78;;;2.13;;
75718;SDS011;64340;48.534;-3.036;2023-02-01T09:34:55;7.05;;;1.80;;
75718;SDS011;64340;48.534;-3.036;2023-02-01T09:37:21;5.10;;;1.95;;
75718;SDS011;64340;48.534;-3.036;2023-02-01T09:39:47;9.30;;;2.25;;
75718;SDS011;64340;48.534;-3.036;2023-02-01T09:42:19;7.72;;;2.03;;
75718;SDS011;64340;48.534;-3.036;2023-02-01T09:45:03;4.43;;;2.13;;
75718;SDS011;64340;48.534;-3.036;2023-02-01T09:47:55;5.90;;;1.83;;
75718;SDS011;64340;48.534;-3.036;2023-02-01T09:50:32;5.55;;;1.60;;
75718;SDS011;64340;48.534;-3.036;2023-02-01T09:53:34;7.32;;;1.85;;
75718;SDS011;64340;48.534;-3.036;2023-02-01T09:56:00;5.93;;;1.92;;
75718;SDS011;64340;48.534;-3.036;2023-02-01T10:01:03;6.78;;;1.60;;
75718;SDS011;64340;48.534;-3.036;2023-02-01T10:03:35;5.15;;;1.90;;
75718;SDS011;64340;48.534;-3.036;2023-02-01T10:06:17;6.85;;;1.70;;
75718;SDS011;64340;48.534;-3.036;2023-02-01T10:26:08;5.30;;;1.80;;
75718;SDS011;64340;48.534;-3.036;2023-02-01T10:28:46;9.00;;;1.95;;
75718;SDS011;64340;48.534;-3.036;2023-02-01T10:31:15;6.95;;;2.05;;
75718;SDS011;64340;48.534;-3.036;2023-02-01T10:33:46;5.85;;;1.77;;
75718;SDS011;64340;48.534;-3.036;2023-02-01T10:38:47;7.68;;;2.15;;
75718;SDS011;64340;48.534;-3.036;2023-02-01T10:41:22;10.70;;;1.80;;
75718;SDS011;64340;48.534;-3.036;2023-02-01T10:43:52;7.28;;;1.80;;
75718;SDS011;64340;48.534;-3.036;2023-02-01T10:46:22;6.65;;;1.88;;
75718;SDS011;64340;48.534;-3.036;2023-02-01T10:48:49;5.72;;;1.55;;
75718;SDS011;64340;48.534;-3.036;2023-02-01T10:51:28;6.18;;;1.60;;
75718;SDS011;64340;48.534;-3.036;2023-02-01T10:54:03;5.50;;;1.92;;
75718;SDS011;64340;48.534;-3.036;2023-02-01T10:56:37;6.38;;;1.80;;
75718;SDS011;64340;48.534;-3.036;2023-02-01T10:59:11;6.50;;;1.75;;
75718;SDS011;64340;48.534;-3.036;2023-02-01T11:01:42;6.28;;;1.85;;
75718;SDS011;64340;48.534;-3.036;2023-02-01T11:04:18;5.22;;;1.73;;
75718;SDS011;64340;48.534;-3.036;2023-02-01T11:06:52;5.95;;;1.42;;
75718;SDS011;64340;48.534;-3.036;2023-02-01T11:09:34;5.68;;;1.70;;
75718;SDS011;64340;48.534;-3.036;2023-02-01T11:12:04;5.57;;;1.77;;
75718;SDS011;64340;48.534;-3.036;2023-02-01T11:14:45;6.75;;;1.23;;
75718;SDS011;64340;48.534;-3.036;2023-02-01T11:20:15;4.88;;;1.52;;
75718;SDS011;64340;48.534;-3.036;2023-02-01T11:22:57;9.32;;;1.92;;
75718;SDS011;64340;48.534;-3.036;2023-02-01T11:25:23;5.53;;;2.08;;
75718;SDS011;64340;48.534;-3.036;2023-02-01T11:27:50;7.57;;;2.00;;
75718;SDS011;64340;48.534;-3.036;2023-02-01T11:30:22;5.22;;;1.77;;
75718;SDS011;64340;48.534;-3.036;2023-02-01T11:33:01;6.45;;;1.90;;
75718;SDS011;64340;48.534;-3.036;2023-02-01T11:37:57;7.90;;;1.55;;
75718;SDS011;64340;48.534;-3.036;2023-02-01T11:40:36;6.28;;;2.00;;
75718;SDS011;64340;48.534;-3.036;2023-02-01T11:43:17;5.75;;;1.63;;
75718;SDS011;64340;48.534;-3.036;2023-02-01T11:45:58;5.25;;;1.85;;
75718;SDS011;64340;48.534;-3.036;2023-02-01T11:48:26;6.57;;;1.70;;
75718;SDS011;64340;48.534;-3.036;2023-02-01T11:59:23;4.75;;;1.50;;
75718;SDS011;64340;48.534;-3.036;2023-02-01T12:10:53;8.20;;;1.98;;
75718;SDS011;64340;48.534;-3.036;2023-02-01T12:13:38;4.68;;;1.55;;
75718;SDS011;64340;48.534;-3.036;2023-02-01T12:16:45;5.75;;;1.98;;
75718;SDS011;64340;48.534;-3.036;2023-02-01T12:22:23;6.97;;;1.73;;
75718;SDS011;64340;48.534;-3.036;2023-02-01T12:32:56;6.22;;;1.50;;
75718;SDS011;64340;48.534;-3.036;2023-02-01T12:43:56;6.90;;;1.45;;
75718;SDS011;64340;48.534;-3.036;2023-02-01T12:46:40;5.72;;;1.33;;
75718;SDS011;64340;48.534;-3.036;2023-02-01T12:49:15;4.57;;;1.52;;
75718;SDS011;64340;48.534;-3.036;2023-02-01T12:51:46;8.27;;;2.35;;
75718;SDS011;64340;48.534;-3.036;2023-02-01T12:57:15;5.70;;;1.75;;
75718;SDS011;64340;48.534;-3.036;2023-02-01T12:59:47;5.70;;;1.30;;
75718;SDS011;64340;48.534;-3.036;2023-02-01T13:02:35;6.57;;;1.55;;
75718;SDS011;64340;48.534;-3.036;2023-02-01T13:05:17;5.85;;;1.42;;
75718;SDS011;64340;48.534;-3.036;2023-02-01T13:07:53;5.30;;;1.23;;
75718;SDS011;64340;48.534;-3.036;2023-02-01T13:10:37;5.80;;;1.50;;
75718;SDS011;64340;48.534;-3.036;2023-02-01T13:15:48;6.72;;;1.80;;
75718;SDS011;64340;48.534;-3.036;2023-02-01T13:18:22;9.77;;;1.85;;
75718;SDS011;64340;48.534;-3.036;2023-02-01T13:23:52;4.68;;;1.60;;
75718;SDS011;64340;48.534;-3.036;2023-02-01T13:26:18;4.50;;;1.27;;
75718;SDS011;64340;48.534;-3.036;2023-02-01T13:28:56;9.95;;;1.75;;
75718;SDS011;64340;48.534;-3.036;2023-02-01T13:31:45;5.82;;;1.45;;
75718;SDS011;64340;48.534;-3.036;2023-02-01T13:43:00;7.30;;;1.52;;
75718;SDS011;64340;48.534;-3.036;2023-02-01T13:45:31;5.78;;;1.27;;
75718;SDS011;64340;48.534;-3.036;2023-02-01T13:48:02;5.68;;;1.40;;
75718;SDS011;64340;48.534;-3.036;2023-02-01T13:53:01;6.30;;;1.77;;
75718;SDS011;64340;48.534;-3.036;2023-02-01T13:55:32;5.50;;;1.73;;
75718;SDS011;64340;48.534;-3.036;2023-02-01T13:58:04;6.20;;;1.60;;
75718;SDS011;64340;48.534;-3.036;2023-02-01T14:00:39;6.55;;;2.00;;
75718;SDS011;64340;48.534;-3.036;2023-02-01T14:03:09;7.28;;;1.20;;
75718;SDS011;64340;48.534;-3.036;2023-02-01T14:08:11;9.38;;;1.83;;
75718;SDS011;64340;48.534;-3.036;2023-02-01T14:10:55;4.22;;;1.48;;
75718;SDS011;64340;48.534;-3.036;2023-02-01T14:23:40;9.43;;;2.00;;
75718;SDS011;64340;48.534;-3.036;2023-02-01T14:26:10;9.40;;;1.42;;
75718;SDS011;64340;48.534;-3.036;2023-02-01T14:28:44;12.35;;;3.05;;
75718;SDS011;64340;48.534;-3.036;2023-02-01T14:31:27;18.17;;;7.80;;
75718;SDS011;64340;48.534;-3.036;2023-02-01T14:34:16;264.38;;;192.32;;
75718;SDS011;64340;48.534;-3.036;2023-02-01T14:36:58;77.53;;;43.17;;
75718;SDS011;64340;48.534;-3.036;2023-02-01T14:42:03;56.50;;;32.40;;
75718;SDS011;64340;48.534;-3.036;2023-02-01T14:44:48;81.22;;;45.92;;
75718;SDS011;64340;48.534;-3.036;2023-02-01T14:52:20;61.70;;;36.28;;
75718;SDS011;64340;48.534;-3.036;2023-02-01T14:54:54;53.30;;;33.60;;
75718;SDS011;64340;48.534;-3.036;2023-02-01T14:57:24;53.90;;;33.58;;
75718;SDS011;64340;48.534;-3.036;2023-02-01T14:59:59;47.42;;;29.55;;
75718;SDS011;64340;48.534;-3.036;2023-02-01T15:02:31;47.72;;;27.42;;
75718;SDS011;64340;48.534;-3.036;2023-02-01T15:05:00;42.60;;;24.70;;
75718;SDS011;64340;48.534;-3.036;2023-02-01T15:07:25;41.25;;;23.83;;
75718;SDS011;64340;48.534;-3.036;2023-02-01T15:09:54;40.03;;;21.95;;
75718;SDS011;64340;48.534;-3.036;2023-02-01T15:12:24;34.42;;;21.75;;
75718;SDS011;64340;48.534;-3.036;2023-02-01T15:17:42;38.33;;;21.52;;
75718;SDS011;64340;48.534;-3.036;2023-02-01T15:20:19;36.15;;;20.70;;
75718;SDS011;64340;48.534;-3.036;2023-02-01T15:22:59;30.83;;;18.55;;
75718;SDS011;64340;48.534;-3.036;2023-02-01T15:25:27;32.17;;;18.10;;
75718;SDS011;64340;48.534;-3.036;2023-02-01T15:27:58;34.22;;;18.10;;
75718;SDS011;64340;48.534;-3.036;2023-02-01T15:30:28;30.00;;;17.45;;
75718;SDS011;64340;48.534;-3.036;2023-02-01T15:40:56;26.35;;;15.00;;
75718;SDS011;64340;48.534;-3.036;2023-02-01T15:43:26;27.20;;;16.17;;
75718;SDS011;64340;48.534;-3.036;2023-02-01T15:45:55;25.08;;;15.73;;
75718;SDS011;64340;48.534;-3.036;2023-02-01T15:48:23;145.48;;;120.65;;
75718;SDS011;64340;48.534;-3.036;2023-02-01T15:50:51;64.20;;;41.78;;
75718;SDS011;64340;48.534;-3.036;2023-02-01T15:53:21;74.32;;;56.17;;
75718;SDS011;64340;48.534;-3.036;2023-02-01T15:55:52;40.80;;;27.27;;
75718;SDS011;64340;48.534;-3.036;2023-02-01T15:58:21;48.85;;;32.05;;
75718;SDS011;64340;48.534;-3.036;2023-02-01T16:00:49;43.85;;;30.02;;
75718;SDS011;64340;48.534;-3.036;2023-02-01T16:06:08;37.80;;;26.80;;
75718;SDS011;64340;48.534;-3.036;2023-02-01T16:11:28;92.60;;;61.65;;
75718;SDS011;64340;48.534;-3.036;2023-02-01T16:13:58;151.05;;;103.63;;
75718;SDS011;64340;48.534;-3.036;2023-02-01T16:16:25;135.70;;;95.25;;
75718;SDS011;64340;48.534;-3.036;2023-02-01T16:18:52;137.15;;;97.85;;
75718;SDS011;64340;48.534;-3.036;2023-02-01T16:21:17;130.52;;;95.60;;
75718;SDS011;64340;48.534;-3.036;2023-02-01T16:23:47;122.43;;;91.32;;
75718;SDS011;64340;48.534;-3.036;2023-02-01T16:26:14;125.68;;;88.68;;
75718;SDS011;64340;48.534;-3.036;2023-02-01T16:28:40;112.65;;;79.88;;
75718;SDS011;64340;48.534;-3.036;2023-02-01T16:31:08;115.05;;;82.53;;
75718;SDS011;64340;48.534;-3.036;2023-02-01T16:33:46;106.05;;;79.05;;
75718;SDS011;64340;48.534;-3.036;2023-02-01T16:36:16;106.40;;;74.13;;
75718;SDS011;64340;48.534;-3.036;2023-02-01T16:38:43;103.05;;;74.05;;
75718;SDS011;64340;48.534;-3.036;2023-02-01T16:41:15;103.10;;;71.70;;
75718;SDS011;64340;48.534;-3.036;2023-02-01T16:43:42;94.35;;;69.13;;
75718;SDS011;64340;48.534;-3.036;2023-02-01T16:46:12;93.90;;;68.32;;
75718;SDS011;64340;48.534;-3.036;2023-02-01T16:48:46;91.10;;;66.68;;
75718;SDS011;64340;48.534;-3.036;2023-02-01T16:51:16;88.13;;;63.95;;
75718;SDS011;64340;48.534;-3.036;2023-02-01T16:53:42;87.43;;;61.58;;
75718;SDS011;64340;48.534;-3.036;2023-02-01T16:56:16;83.93;;;60.55;;
75718;SDS011;64340;48.534;-3.036;2023-02-01T16:58:44;79.05;;;57.78;;
75718;SDS011;64340;48.534;-3.036;2023-02-01T17:01:13;79.10;;;56.53;;
75718;SDS011;64340;48.534;-3.036;2023-02-01T17:03:41;77.00;;;55.30;;
75718;SDS011;64340;48.534;-3.036;2023-02-01T17:06:09;70.95;;;52.38;;
75718;SDS011;64340;48.534;-3.036;2023-02-01T17:08:41;75.82;;;51.78;;
75718;SDS011;64340;48.534;-3.036;2023-02-01T17:11:09;71.20;;;50.83;;
75718;SDS011;64340;48.534;-3.036;2023-02-01T17:13:37;69.35;;;49.08;;
75718;SDS011;64340;48.534;-3.036;2023-02-01T17:16:05;65.30;;;46.97;;
75718;SDS011;64340;48.534;-3.036;2023-02-01T17:19:02;59.42;;;42.03;;
75718;SDS011;64340;48.534;-3.036;2023-02-01T17:21:34;63.35;;;45.00;;
75718;SDS011;64340;48.534;-3.036;2023-02-01T17:24:07;60.80;;;42.83;;
75718;SDS011;64340;48.534;-3.036;2023-02-01T17:26:36;64.05;;;45.13;;